createdAt,value
2023-03-18T00:00:49.413Z,11.80
2023-03-18T00:03:38.443Z,11.80
2023-03-18T00:06:27.097Z,11.80
2023-03-18T00:09:15.294Z,11.80
2023-03-18T00:12:03.301Z,11.80
2023-03-18T00:14:53.071Z,11.80
2023-03-18T00:17:41.247Z,11.80
2023-03-18T00:20:39.300Z,11.80
2023-03-18T00:23:27.898Z,11.80
2023-03-18T00:26:15.987Z,11.80
2023-03-18T00:29:05.217Z,11.80
2023-03-18T00:31:54.489Z,11.80
2023-03-18T00:34:43.136Z,11.80
2023-03-18T00:37:31.332Z,11.80
2023-03-18T00:40:20.547Z,11.80
2023-03-18T00:43:08.748Z,11.80
2023-03-18T00:46:00.318Z,11.80
2023-03-18T00:48:50.082Z,11.70
2023-03-18T00:51:41.868Z,11.70
2023-03-18T00:54:30.268Z,11.60
2023-03-18T00:57:18.461Z,11.60
2023-03-18T01:00:07.781Z,11.50
2023-03-18T01:02:56.204Z,11.50
2023-03-18T01:05:45.463Z,11.40
2023-03-18T01:08:33.764Z,11.40
2023-03-18T01:11:21.731Z,11.40
2023-03-18T01:14:10.490Z,11.40
2023-03-18T01:16:58.796Z,11.30
2023-03-18T01:19:49.921Z,11.30
2023-03-18T01:22:41.371Z,11.30
2023-03-18T01:25:29.299Z,11.30
2023-03-18T01:28:17.665Z,11.30
2023-03-18T01:31:05.918Z,11.30
2023-03-18T01:33:54.677Z,11.30
2023-03-18T01:36:42.576Z,11.20
2023-03-18T01:39:31.889Z,11.20
2023-03-18T01:42:21.356Z,11.20
2023-03-18T01:45:19.513Z,11.20
2023-03-18T01:48:07.514Z,11.20
2023-03-18T01:50:59.409Z,11.10
2023-03-18T01:53:50.704Z,11.10
2023-03-18T01:56:42.275Z,11.10
2023-03-18T01:59:32.833Z,11.10
2023-03-18T02:02:21.478Z,11.00
2023-03-18T02:05:13.079Z,11.00
2023-03-18T02:08:00.991Z,11.10
2023-03-18T02:10:49.952Z,11.10
2023-03-18T02:13:41.305Z,11.10
2023-03-18T02:16:34.887Z,11.10
2023-03-18T02:19:34.500Z,11.00
2023-03-18T02:22:29.251Z,11.00
2023-03-18T02:25:27.033Z,11.00
2023-03-18T02:28:20.202Z,11.00
2023-03-18T02:31:12.905Z,11.00
2023-03-18T02:34:01.759Z,11.00
2023-03-18T02:36:49.826Z,11.00
2023-03-18T02:39:37.720Z,11.00
2023-03-18T02:42:30.504Z,11.00
2023-03-18T02:45:34.759Z,11.00
2023-03-18T02:48:27.061Z,11.00
2023-03-18T02:51:17.104Z,11.00
2023-03-18T02:54:08.224Z,11.00
2023-03-18T02:56:57.021Z,11.00
2023-03-18T02:59:44.868Z,11.00
2023-03-18T03:02:34.301Z,11.00
2023-03-18T03:05:22.253Z,10.90
2023-03-18T03:08:10.499Z,10.90
2023-03-18T03:10:58.575Z,10.90
2023-03-18T03:13:46.858Z,11.00
2023-03-18T03:16:35.138Z,10.90
2023-03-18T03:19:24.660Z,10.90
2023-03-18T03:22:12.974Z,10.90
2023-03-18T03:25:01.206Z,10.80
2023-03-18T03:27:49.976Z,10.80
2023-03-18T03:30:37.919Z,10.80
2023-03-18T03:33:26.531Z,10.80
2023-03-18T03:36:17.839Z,10.80
2023-03-18T03:39:06.125Z,10.80
2023-03-18T03:41:54.398Z,10.70
2023-03-18T03:44:42.449Z,10.80
2023-03-18T03:47:30.332Z,10.70
2023-03-18T03:50:19.173Z,10.70
2023-03-18T03:53:09.455Z,10.70
2023-03-18T03:55:59.159Z,10.70
2023-03-18T03:58:47.598Z,10.70
2023-03-18T04:01:35.640Z,10.70
2023-03-18T04:04:24.174Z,10.70
2023-03-18T04:07:12.476Z,10.60
2023-03-18T04:10:02.619Z,10.60
2023-03-18T04:12:50.923Z,10.60
2023-03-18T04:15:38.845Z,10.60
2023-03-18T04:18:27.144Z,10.60
2023-03-18T04:21:15.165Z,10.50
2023-03-18T04:24:03.991Z,10.60
2023-03-18T04:26:53.357Z,10.60
2023-03-18T04:29:41.683Z,10.60
2023-03-18T04:32:29.720Z,10.60
2023-03-18T04:35:18.305Z,10.50
2023-03-18T04:38:06.568Z,10.50
2023-03-18T04:40:54.558Z,10.50
2023-03-18T04:43:44.607Z,10.60
2023-03-18T04:46:32.668Z,10.60
2023-03-18T04:49:20.678Z,10.60
2023-03-18T04:52:08.688Z,10.50
2023-03-18T04:54:56.703Z,10.60
2023-03-18T04:57:44.938Z,10.60
2023-03-18T05:00:34.965Z,10.60
2023-03-18T05:03:23.671Z,10.60
2023-03-18T05:06:22.695Z,10.50
2023-03-18T05:09:10.694Z,10.60
2023-03-18T05:11:58.979Z,10.50
2023-03-18T05:14:48.151Z,10.50
2023-03-18T05:17:38.352Z,10.50
2023-03-18T05:20:26.858Z,10.50
2023-03-18T05:23:14.725Z,10.50
2023-03-18T05:26:03.373Z,10.50
2023-03-18T05:28:51.418Z,10.50
2023-03-18T05:31:39.503Z,10.80
2023-03-18T05:34:28.720Z,10.70
2023-03-18T05:37:16.786Z,10.70
2023-03-18T05:40:09.743Z,10.60
2023-03-18T05:42:57.686Z,10.60
2023-03-18T05:45:45.600Z,10.60
2023-03-18T05:48:34.145Z,10.60
2023-03-18T05:51:24.802Z,10.50
2023-03-18T05:54:13.061Z,10.50
2023-03-18T05:57:00.980Z,10.60
2023-03-18T05:59:48.866Z,10.60
2023-03-18T06:02:36.809Z,10.60
2023-03-18T06:05:25.714Z,10.60
2023-03-18T06:08:15.541Z,10.60
2023-03-18T06:11:03.954Z,10.60
2023-03-18T06:13:52.199Z,10.60
2023-03-18T06:16:40.300Z,10.70
2023-03-18T06:19:30.705Z,10.60
2023-03-18T06:22:18.875Z,10.60
2023-03-18T06:25:10.046Z,10.60
2023-03-18T06:27:58.820Z,10.60
2023-03-18T06:30:46.781Z,10.60
2023-03-18T06:33:34.779Z,10.60
2023-03-18T06:36:23.274Z,10.60
2023-03-18T06:39:12.257Z,10.60
2023-03-18T06:42:01.747Z,10.60
2023-03-18T06:44:51.206Z,10.50
2023-03-18T06:47:40.013Z,10.60
2023-03-18T06:50:28.284Z,10.60
2023-03-18T06:53:16.357Z,10.70
2023-03-18T06:56:04.555Z,10.60
2023-03-18T06:58:54.227Z,10.60
2023-03-18T07:01:52.877Z,10.60
2023-03-18T07:04:40.939Z,10.70
2023-03-18T07:07:29.154Z,10.70
2023-03-18T07:10:23.961Z,10.80
2023-03-18T07:13:13.577Z,10.80
2023-03-18T07:16:04.350Z,10.80
2023-03-18T07:18:53.666Z,10.80
2023-03-18T07:21:42.976Z,10.80
2023-03-18T07:24:32.896Z,10.80
2023-03-18T07:27:24.254Z,10.90
2023-03-18T07:30:16.789Z,10.90
2023-03-18T07:33:04.972Z,10.90
2023-03-18T07:35:54.387Z,11.00
2023-03-18T07:38:42.496Z,11.00
2023-03-18T07:41:30.746Z,11.10
2023-03-18T07:44:18.834Z,11.10
2023-03-18T07:47:06.972Z,11.10
2023-03-18T07:49:54.884Z,11.20
2023-03-18T07:52:44.716Z,11.20
2023-03-18T07:55:34.279Z,11.20
2023-03-18T07:58:22.640Z,11.20
2023-03-18T08:01:12.028Z,11.30
2023-03-18T08:04:00.879Z,11.30
2023-03-18T08:06:49.381Z,11.40
2023-03-18T08:09:38.729Z,11.50
2023-03-18T08:12:27.709Z,11.50
2023-03-18T08:15:18.026Z,11.60
2023-03-18T08:18:08.992Z,11.60
2023-03-18T08:20:57.194Z,11.60
2023-03-18T08:23:45.418Z,11.60
2023-03-18T08:26:34.714Z,11.70
2023-03-18T08:29:22.609Z,11.80
2023-03-18T08:32:11.486Z,11.80
2023-03-18T08:34:59.508Z,11.80
2023-03-18T08:37:47.918Z,11.90
2023-03-18T08:40:35.894Z,11.90
2023-03-18T08:43:25.833Z,11.90
2023-03-18T08:46:14.689Z,12.00
2023-03-18T08:49:03.031Z,12.10
2023-03-18T08:51:51.722Z,12.20
2023-03-18T08:54:39.782Z,12.40
2023-03-18T08:57:28.178Z,12.50
2023-03-18T09:00:18.976Z,12.60
2023-03-18T09:03:07.546Z,12.60
2023-03-18T09:05:55.877Z,12.60
2023-03-18T09:08:44.883Z,12.70
2023-03-18T09:11:33.726Z,12.70
2023-03-18T09:14:21.644Z,12.80
2023-03-18T09:17:10.948Z,12.80
2023-03-18T09:19:58.966Z,12.90
2023-03-18T09:22:47.769Z,13.00
2023-03-18T09:25:35.901Z,13.10
2023-03-18T09:28:23.876Z,13.10
2023-03-18T09:31:13.015Z,13.20
2023-03-18T09:34:02.582Z,13.30
2023-03-18T09:36:52.519Z,13.40
2023-03-18T09:39:40.595Z,13.50
2023-03-18T09:42:42.643Z,13.50
2023-03-18T09:45:35.651Z,13.70
2023-03-18T09:48:50.489Z,13.70
2023-03-18T09:51:48.032Z,13.80
2023-03-18T09:54:39.659Z,13.80
2023-03-18T09:57:29.864Z,13.90
2023-03-18T10:00:24.327Z,13.90
2023-03-18T10:03:16.757Z,13.90
2023-03-18T10:06:09.181Z,14.00
2023-03-18T10:09:07.843Z,14.10
2023-03-18T10:12:05.896Z,14.20
2023-03-18T10:15:05.253Z,14.30
2023-03-18T10:17:57.564Z,14.20
2023-03-18T10:21:00.238Z,14.30
2023-03-18T10:23:54.703Z,14.40
2023-03-18T10:26:50.122Z,14.50
2023-03-18T10:29:44.244Z,14.60
2023-03-18T10:32:49.828Z,14.70
2023-03-18T10:35:44.425Z,14.80
2023-03-18T10:38:37.712Z,14.90
2023-03-18T10:41:31.335Z,15.00
2023-03-18T10:44:26.150Z,15.00
2023-03-18T10:47:19.884Z,15.00
2023-03-18T10:50:18.346Z,15.10
2023-03-18T10:53:15.818Z,15.20
2023-03-18T10:56:08.021Z,15.20
2023-03-18T10:58:57.506Z,15.20
2023-03-18T11:01:49.985Z,15.40
2023-03-18T11:04:46.940Z,15.40
2023-03-18T11:07:35.325Z,15.50
2023-03-18T11:10:27.741Z,15.50
2023-03-18T11:13:18.342Z,15.50
2023-03-18T11:16:07.129Z,15.60
2023-03-18T11:18:57.433Z,15.70
2023-03-18T11:21:46.104Z,15.70
2023-03-18T11:24:39.552Z,15.60
2023-03-18T11:27:35.143Z,15.50
2023-03-18T11:30:34.137Z,15.50
2023-03-18T11:33:31.311Z,15.60
2023-03-18T11:36:24.799Z,15.70
2023-03-18T11:39:16.598Z,15.80
2023-03-18T11:42:18.841Z,15.80
2023-03-18T11:45:29.663Z,15.80
2023-03-18T11:48:24.838Z,15.90
2023-03-18T11:51:48.491Z,16.00
2023-03-18T11:55:04.971Z,16.10
2023-03-18T11:58:15.752Z,16.10
2023-03-18T12:01:08.559Z,16.30
2023-03-18T12:04:23.963Z,16.40
2023-03-18T12:07:42.943Z,16.50
2023-03-18T12:10:36.072Z,16.60
2023-03-18T12:13:37.321Z,16.60
2023-03-18T12:16:41.273Z,16.60
2023-03-18T12:19:51.589Z,16.70
2023-03-18T12:23:03.281Z,16.70
2023-03-18T12:25:59.997Z,16.80
2023-03-18T12:29:14.422Z,16.80
2023-03-18T12:32:14.511Z,16.80
2023-03-18T12:35:25.972Z,16.80
2023-03-18T12:38:50.515Z,16.80
2023-03-18T12:41:47.193Z,16.80
2023-03-18T12:44:49.174Z,16.90
2023-03-18T12:47:42.386Z,16.90
2023-03-18T12:50:35.499Z,16.90
2023-03-18T12:53:30.972Z,17.00
2023-03-18T12:56:22.480Z,17.00
2023-03-18T12:59:17.132Z,17.00
2023-03-18T13:02:39.304Z,17.10
2023-03-18T13:05:40.693Z,17.20
2023-03-18T13:09:01.000Z,17.30
2023-03-18T13:11:57.039Z,17.40
2023-03-18T13:14:53.063Z,17.50
2023-03-18T13:17:42.192Z,17.50
2023-03-18T13:20:32.398Z,17.60
2023-03-18T13:23:39.536Z,17.60
2023-03-18T13:26:44.724Z,17.60
2023-03-18T13:29:38.009Z,17.60
2023-03-18T13:32:48.854Z,17.70
2023-03-18T13:35:56.491Z,17.80
2023-03-18T13:39:08.391Z,17.90
2023-03-18T13:42:20.127Z,18.10
2023-03-18T13:45:19.844Z,18.10
2023-03-18T13:48:11.541Z,18.10
2023-03-18T13:51:00.576Z,18.10
2023-03-18T13:53:50.661Z,18.20
2023-03-18T13:56:49.988Z,18.30
2023-03-18T13:59:48.809Z,18.40
2023-03-18T14:02:45.720Z,18.40
2023-03-18T14:05:40.520Z,18.60
2023-03-18T14:08:37.269Z,18.60
2023-03-18T14:11:51.155Z,18.80
2023-03-18T14:15:02.733Z,18.80
2023-03-18T14:17:56.910Z,18.80
2023-03-18T14:20:44.842Z,18.90
2023-03-18T14:23:39.508Z,18.80
2023-03-18T14:26:27.994Z,18.80
2023-03-18T14:29:23.706Z,18.80
2023-03-18T14:32:40.208Z,18.80
2023-03-18T14:35:31.007Z,18.80
2023-03-18T14:38:23.124Z,18.70
2023-03-18T14:41:25.705Z,18.80
2023-03-18T14:44:22.518Z,18.90
2023-03-18T14:47:31.971Z,18.90
2023-03-18T14:50:43.065Z,18.90
2023-03-18T14:53:35.129Z,18.80
2023-03-18T14:56:25.239Z,18.80
2023-03-18T14:59:17.424Z,18.90
2023-03-18T15:02:09.928Z,19.10
2023-03-18T15:05:00.778Z,19.00
2023-03-18T15:07:54.570Z,18.90
2023-03-18T15:10:43.458Z,18.90
2023-03-18T15:13:31.349Z,18.80
2023-03-18T15:16:20.897Z,18.80
2023-03-18T15:19:12.813Z,18.80
2023-03-18T15:22:04.467Z,18.90
2023-03-18T15:24:55.890Z,19.00
2023-03-18T15:27:43.843Z,19.00
2023-03-18T15:30:34.246Z,19.00
2023-03-18T15:33:24.517Z,18.90
2023-03-18T15:36:16.993Z,18.70
2023-03-18T15:39:21.511Z,18.70
2023-03-18T15:42:17.808Z,18.60
2023-03-18T15:45:07.126Z,18.50
2023-03-18T15:47:55.411Z,18.40
2023-03-18T15:50:54.185Z,18.30
2023-03-18T15:53:44.768Z,18.30
2023-03-18T15:56:36.122Z,18.20
2023-03-18T15:59:28.628Z,18.10
2023-03-18T16:02:18.804Z,18.00
2023-03-18T16:05:09.289Z,18.00
2023-03-18T16:07:59.353Z,17.90
2023-03-18T16:10:48.731Z,17.90
2023-03-18T16:13:38.864Z,17.80
2023-03-18T16:16:31.535Z,17.70
2023-03-18T16:19:25.022Z,17.70
2023-03-18T16:22:14.312Z,17.50
2023-03-18T16:25:02.272Z,17.50
2023-03-18T16:27:52.542Z,17.40
2023-03-18T16:30:41.374Z,17.40
2023-03-18T16:33:31.014Z,17.30
2023-03-18T16:36:26.557Z,17.10
2023-03-18T16:39:16.980Z,17.00
2023-03-18T16:42:06.687Z,16.90
2023-03-18T16:44:54.721Z,16.80
2023-03-18T16:47:44.026Z,16.60
2023-03-18T16:50:37.294Z,16.50
2023-03-18T16:53:27.277Z,16.40
2023-03-18T16:56:18.974Z,16.20
2023-03-18T16:59:12.518Z,16.10
2023-03-18T17:02:00.732Z,16.00
2023-03-18T17:04:48.698Z,15.90
2023-03-18T17:07:37.983Z,15.90
2023-03-18T17:10:27.484Z,15.80
2023-03-18T17:13:19.922Z,15.70
2023-03-18T17:16:18.105Z,15.70
2023-03-18T17:19:06.122Z,15.60
2023-03-18T17:21:54.860Z,15.40
2023-03-18T17:24:44.095Z,15.40
2023-03-18T17:27:34.793Z,15.30
2023-03-18T17:30:24.693Z,15.30
2023-03-18T17:33:22.246Z,15.30
2023-03-18T17:36:10.739Z,15.30
2023-03-18T17:39:00.100Z,15.20
2023-03-18T17:41:49.525Z,15.20
2023-03-18T17:44:37.451Z,15.20
2023-03-18T17:47:26.271Z,15.20
2023-03-18T17:50:17.198Z,15.20
2023-03-18T17:53:05.259Z,15.10
2023-03-18T17:55:53.608Z,15.10
2023-03-18T17:58:45.485Z,15.10
2023-03-18T18:01:33.623Z,15.10
2023-03-18T18:04:23.580Z,15.10
2023-03-18T18:07:17.946Z,15.10
2023-03-18T18:10:07.387Z,15.10
2023-03-18T18:12:55.275Z,15.00
2023-03-18T18:15:45.953Z,15.00
2023-03-18T18:18:35.684Z,15.00
2023-03-18T18:21:26.363Z,15.00
2023-03-18T18:24:19.639Z,15.00
2023-03-18T18:27:07.688Z,15.00
2023-03-18T18:29:55.740Z,15.00
2023-03-18T18:32:45.471Z,15.00
2023-03-18T18:35:33.641Z,15.00
2023-03-18T18:38:22.038Z,15.00
2023-03-18T18:41:10.972Z,15.00
2023-03-18T18:43:58.860Z,15.00
2023-03-18T18:46:46.859Z,14.90
2023-03-18T18:49:36.132Z,15.00
2023-03-18T18:52:24.098Z,15.00
2023-03-18T18:55:12.329Z,15.00
2023-03-18T18:58:00.239Z,15.00
2023-03-18T19:00:49.652Z,15.00
2023-03-18T19:03:37.780Z,15.00
2023-03-18T19:06:30.828Z,14.90
2023-03-18T19:09:20.782Z,14.90
2023-03-18T19:12:15.862Z,14.90
2023-03-18T19:15:03.984Z,14.90
2023-03-18T19:17:53.032Z,14.80
2023-03-18T19:20:41.884Z,14.80
2023-03-18T19:23:33.142Z,14.70
2023-03-18T19:26:21.678Z,14.70
2023-03-18T19:29:12.265Z,14.70
2023-03-18T19:32:01.445Z,14.60
2023-03-18T19:34:51.554Z,14.60
2023-03-18T19:37:42.098Z,14.60
2023-03-18T19:40:34.092Z,14.60
2023-03-18T19:43:23.087Z,14.60
2023-03-18T19:46:17.064Z,14.60
2023-03-18T19:49:13.204Z,14.60
2023-03-18T19:52:01.178Z,14.50
2023-03-18T19:54:50.458Z,14.50
2023-03-18T19:57:39.756Z,14.50
2023-03-18T20:00:28.478Z,14.50
2023-03-18T20:03:19.282Z,14.50
2023-03-18T20:06:08.012Z,14.50
2023-03-18T20:08:55.952Z,14.50
2023-03-18T20:11:44.359Z,14.40
2023-03-18T20:14:37.932Z,14.40
2023-03-18T20:17:34.270Z,14.30
2023-03-18T20:20:24.399Z,14.10
2023-03-18T20:23:18.475Z,13.90
2023-03-18T20:26:07.029Z,13.80
2023-03-18T20:28:56.084Z,13.60
2023-03-18T20:31:45.843Z,13.50
2023-03-18T20:34:38.100Z,13.40
2023-03-18T20:37:32.063Z,13.40
2023-03-18T20:40:22.914Z,13.50
2023-03-18T20:43:14.973Z,13.30
2023-03-18T20:46:03.299Z,13.30
2023-03-18T20:48:53.223Z,13.30
2023-03-18T20:51:41.706Z,13.20
2023-03-18T20:54:31.706Z,13.20
2023-03-18T20:57:19.881Z,13.20
2023-03-18T21:00:12.367Z,13.20
2023-03-18T21:03:03.018Z,13.10
2023-03-18T21:05:53.397Z,13.00
2023-03-18T21:08:41.476Z,13.00
2023-03-18T21:11:32.693Z,12.90
2023-03-18T21:14:21.378Z,12.90
2023-03-18T21:17:16.789Z,12.90
2023-03-18T21:20:21.156Z,12.90
2023-03-18T21:23:22.607Z,12.80
2023-03-18T21:26:10.589Z,12.70
2023-03-18T21:28:58.677Z,12.60
2023-03-18T21:31:47.206Z,12.60
2023-03-18T21:34:35.367Z,12.60
2023-03-18T21:37:24.835Z,12.60
2023-03-18T21:40:20.278Z,12.60
2023-03-18T21:43:25.402Z,12.70
2023-03-18T21:46:16.017Z,12.80
2023-03-18T21:49:04.119Z,12.70
2023-03-18T21:51:52.278Z,12.70
2023-03-18T21:54:40.593Z,12.60
2023-03-18T21:57:31.216Z,12.60
2023-03-18T22:00:22.309Z,12.50
2023-03-18T22:03:14.670Z,12.50
2023-03-18T22:06:02.774Z,12.60
2023-03-18T22:08:50.737Z,12.60
2023-03-18T22:11:38.785Z,12.50
2023-03-18T22:14:27.969Z,12.50
2023-03-18T22:17:27.309Z,12.50
2023-03-18T22:20:15.357Z,12.60
2023-03-18T22:23:06.989Z,12.50
2023-03-18T22:25:57.511Z,12.60
2023-03-18T22:28:46.411Z,12.60
2023-03-18T22:31:36.143Z,12.50
2023-03-18T22:34:24.823Z,12.50
2023-03-18T22:37:19.512Z,12.50
2023-03-18T22:40:11.379Z,12.40
2023-03-18T22:43:01.469Z,12.40
2023-03-18T22:45:49.376Z,12.50
2023-03-18T22:48:39.248Z,12.40
2023-03-18T22:51:29.550Z,12.50
2023-03-18T22:54:19.294Z,12.50
2023-03-18T22:57:07.249Z,12.40
2023-03-18T22:59:56.606Z,12.50
2023-03-18T23:02:44.807Z,12.50
2023-03-18T23:05:34.450Z,12.50
2023-03-18T23:08:22.980Z,12.50
2023-03-18T23:11:11.351Z,12.40
2023-03-18T23:13:59.706Z,12.50
2023-03-18T23:16:47.682Z,12.40
2023-03-18T23:19:35.696Z,12.40
2023-03-18T23:22:27.238Z,12.40
2023-03-18T23:25:17.715Z,12.30
2023-03-18T23:28:05.839Z,12.40
2023-03-18T23:30:54.493Z,12.30
2023-03-18T23:33:42.604Z,12.40
2023-03-18T23:36:30.783Z,12.40
2023-03-18T23:39:20.378Z,12.30
2023-03-18T23:42:08.713Z,12.30
2023-03-18T23:44:56.889Z,12.30
2023-03-18T23:47:45.070Z,12.40
2023-03-18T23:50:32.976Z,12.40
2023-03-18T23:53:20.977Z,12.40
2023-03-18T23:56:11.830Z,12.40
2023-03-18T23:59:00.089Z,12.40
